createdAt,value
2023-06-19T00:02:00.617Z,12.07
2023-06-19T00:04:29.066Z,12.00
2023-06-19T00:06:57.513Z,11.00
2023-06-19T00:09:26.353Z,12.33
2023-06-19T00:11:56.106Z,13.97
2023-06-19T00:14:24.861Z,13.87
2023-06-19T00:16:53.854Z,14.90
2023-06-19T00:19:22.270Z,15.87
2023-06-19T00:21:50.723Z,14.33
2023-06-19T00:24:19.232Z,13.70
2023-06-19T00:26:47.599Z,12.83
2023-06-19T00:29:17.483Z,12.50
2023-06-19T00:31:46.198Z,13.40
2023-06-19T00:34:14.579Z,13.23
2023-06-19T00:36:43.036Z,12.67
2023-06-19T00:39:12.056Z,12.30
2023-06-19T00:41:40.552Z,15.53
2023-06-19T00:44:08.974Z,16.97
2023-06-19T00:46:40.139Z,15.80
2023-06-19T00:49:08.653Z,15.97
2023-06-19T00:51:37.108Z,16.50
2023-06-19T00:54:05.646Z,15.43
2023-06-19T00:56:35.722Z,15.03
2023-06-19T00:59:04.227Z,15.00
2023-06-19T01:01:32.679Z,16.20
2023-06-19T01:04:02.666Z,16.00
2023-06-19T01:06:46.031Z,15.63
2023-06-19T01:09:17.287Z,15.97
2023-06-19T01:11:59.196Z,14.73
2023-06-19T01:14:30.293Z,15.83
2023-06-19T01:16:58.711Z,13.07
2023-06-19T01:19:28.867Z,13.27
2023-06-19T01:21:57.209Z,14.10
2023-06-19T01:24:27.051Z,13.23
2023-06-19T01:26:55.507Z,12.87
2023-06-19T01:29:23.941Z,13.17
2023-06-19T01:31:55.937Z,11.73
2023-06-19T01:34:24.486Z,12.97
2023-06-19T01:36:52.902Z,13.67
2023-06-19T01:39:21.425Z,16.20
2023-06-19T01:41:51.241Z,15.20
2023-06-19T01:44:19.649Z,13.73
2023-06-19T01:46:50.619Z,16.60
2023-06-19T01:49:19.074Z,14.50
2023-06-19T01:51:47.476Z,13.40
2023-06-19T01:54:15.879Z,12.87
2023-06-19T01:56:44.168Z,14.13
2023-06-19T01:59:13.998Z,13.27
2023-06-19T02:01:42.398Z,13.83
2023-06-19T02:04:10.898Z,13.50
2023-06-19T02:06:39.280Z,15.20
2023-06-19T02:09:09.050Z,16.70
2023-06-19T02:11:37.477Z,17.07
2023-06-19T02:14:05.960Z,17.00
2023-06-19T02:16:35.879Z,15.47
2023-06-19T02:19:04.457Z,17.53
2023-06-19T02:21:32.811Z,18.87
2023-06-19T02:24:01.348Z,18.60
2023-06-19T02:26:30.495Z,15.30
2023-06-19T02:28:58.890Z,16.00
2023-06-19T02:31:27.349Z,17.20
2023-06-19T02:33:57.162Z,16.17
2023-06-19T02:36:25.593Z,16.53
2023-06-19T02:38:53.973Z,15.07
2023-06-19T02:41:22.410Z,14.67
2023-06-19T02:43:50.834Z,15.33
2023-06-19T02:46:19.252Z,16.30
2023-06-19T02:48:47.743Z,17.27
2023-06-19T02:51:17.537Z,16.47
2023-06-19T02:53:46.030Z,14.20
2023-06-19T02:56:14.694Z,15.40
2023-06-19T02:58:43.170Z,18.87
2023-06-19T03:01:11.707Z,17.10
2023-06-19T03:03:42.071Z,15.80
2023-06-19T03:06:10.850Z,16.37
2023-06-19T03:08:40.599Z,17.87
2023-06-19T03:11:09.024Z,15.43
2023-06-19T03:13:47.119Z,14.83
2023-06-19T03:16:16.243Z,17.30
2023-06-19T03:18:46.667Z,14.73
2023-06-19T03:21:15.571Z,17.53
2023-06-19T03:23:45.367Z,17.23
2023-06-19T03:26:13.845Z,20.03
2023-06-19T03:28:42.260Z,20.53
2023-06-19T03:31:10.739Z,22.57
2023-06-19T03:33:39.154Z,18.77
2023-06-19T03:36:08.103Z,19.40
2023-06-19T03:38:36.653Z,18.53
2023-06-19T03:41:06.419Z,17.90
2023-06-19T03:43:34.840Z,16.70
2023-06-19T03:46:03.266Z,19.00
2023-06-19T03:48:31.700Z,17.03
2023-06-19T03:51:01.822Z,22.70
2023-06-19T03:53:30.259Z,17.67
2023-06-19T03:55:58.698Z,17.90
2023-06-19T03:58:28.537Z,16.90
2023-06-19T04:00:56.993Z,16.10
2023-06-19T04:03:25.452Z,18.27
2023-06-19T04:05:53.915Z,18.00
2023-06-19T04:08:22.466Z,18.60
2023-06-19T04:10:50.855Z,18.37
2023-06-19T04:13:19.228Z,18.57
2023-06-19T04:15:51.017Z,18.87
2023-06-19T04:18:20.010Z,19.43
2023-06-19T04:20:48.523Z,18.67
2023-06-19T04:23:16.904Z,20.47
2023-06-19T04:25:45.230Z,20.10
2023-06-19T04:28:13.584Z,18.13
2023-06-19T04:30:41.994Z,17.73
2023-06-19T04:33:11.998Z,18.57
2023-06-19T04:35:42.043Z,19.53
2023-06-19T04:38:10.905Z,17.07
2023-06-19T04:40:39.296Z,19.03
2023-06-19T04:43:07.862Z,17.87
2023-06-19T04:45:36.342Z,19.63
2023-06-19T04:48:05.326Z,19.30
2023-06-19T04:50:35.145Z,18.43
2023-06-19T04:53:03.599Z,19.03
2023-06-19T04:55:32.235Z,17.77
2023-06-19T04:58:00.795Z,17.77
2023-06-19T05:00:29.274Z,17.27
2023-06-19T05:03:01.715Z,16.50
2023-06-19T05:05:30.518Z,16.23
2023-06-19T05:08:00.372Z,16.20
2023-06-19T05:10:29.081Z,15.57
2023-06-19T05:12:57.488Z,16.83
2023-06-19T05:15:25.890Z,20.50
2023-06-19T05:17:54.370Z,19.00
2023-06-19T05:20:23.175Z,17.70
2023-06-19T05:22:51.800Z,18.70
2023-06-19T05:25:21.811Z,20.90
2023-06-19T05:27:50.245Z,19.03
2023-06-19T05:30:18.730Z,18.00
2023-06-19T05:32:47.119Z,23.40
2023-06-19T05:35:16.617Z,17.93
2023-06-19T05:37:45.441Z,17.13
2023-06-19T05:40:14.225Z,18.63
2023-06-19T05:42:44.192Z,17.83
2023-06-19T05:45:13.466Z,18.30
2023-06-19T05:47:42.009Z,17.33
2023-06-19T05:50:11.554Z,19.07
2023-06-19T05:52:42.786Z,19.07
2023-06-19T05:55:11.590Z,17.90
2023-06-19T05:57:40.037Z,17.43
2023-06-19T06:00:15.410Z,20.60
2023-06-19T06:02:43.905Z,18.93
2023-06-19T06:05:12.368Z,17.57
2023-06-19T06:07:41.727Z,19.03
2023-06-19T06:10:11.506Z,26.63
2023-06-19T06:12:40.057Z,18.20
2023-06-19T06:15:10.955Z,18.10
2023-06-19T06:17:39.465Z,19.70
2023-06-19T06:20:13.578Z,18.33
2023-06-19T06:22:42.444Z,16.43
2023-06-19T06:25:13.574Z,17.73
2023-06-19T06:27:43.007Z,18.33
2023-06-19T06:30:15.060Z,18.93
2023-06-19T06:32:44.674Z,17.23
2023-06-19T06:35:13.191Z,16.13
2023-06-19T06:37:41.701Z,17.63
2023-06-19T06:40:12.277Z,17.30
2023-06-19T06:42:41.075Z,18.83
2023-06-19T06:45:10.355Z,18.03
2023-06-19T06:47:41.187Z,17.80
2023-06-19T06:50:10.829Z,19.37
2023-06-19T06:52:39.639Z,16.87
2023-06-19T06:55:08.835Z,16.93
2023-06-19T06:57:37.187Z,15.67
2023-06-19T07:00:10.968Z,15.80
2023-06-19T07:02:42.314Z,17.20
2023-06-19T07:05:11.563Z,15.73
2023-06-19T07:07:40.091Z,14.73
2023-06-19T07:10:10.081Z,19.80
2023-06-19T07:12:46.235Z,16.57
2023-06-19T07:15:14.636Z,19.43
2023-06-19T07:17:45.119Z,15.17
2023-06-19T07:20:14.055Z,16.07
2023-06-19T07:22:42.710Z,16.27
2023-06-19T07:25:12.937Z,15.03
2023-06-19T07:27:42.431Z,16.13
2023-06-19T07:30:14.870Z,17.67
2023-06-19T07:32:45.761Z,16.80
2023-06-19T07:35:14.219Z,15.67
2023-06-19T07:37:42.714Z,15.00
2023-06-19T07:40:13.093Z,14.27
2023-06-19T07:42:44.154Z,14.63
2023-06-19T07:45:14.848Z,14.47
2023-06-19T07:47:44.679Z,14.43
2023-06-19T07:50:13.091Z,14.73
2023-06-19T07:52:41.509Z,14.23
2023-06-19T07:55:10.853Z,12.40
2023-06-19T07:57:39.280Z,13.80
2023-06-19T08:00:12.452Z,13.13
2023-06-19T08:02:41.766Z,13.50
2023-06-19T08:05:12.329Z,13.70
2023-06-19T08:07:40.836Z,12.90
2023-06-19T08:10:13.953Z,13.30
2023-06-19T08:12:43.855Z,13.90
2023-06-19T08:15:14.521Z,12.03
2023-06-19T08:17:43.274Z,17.20
2023-06-19T08:20:13.433Z,15.83
2023-06-19T08:22:41.935Z,14.00
2023-06-19T08:25:11.018Z,13.33
2023-06-19T08:27:40.426Z,12.57
2023-06-19T08:30:10.151Z,13.20
2023-06-19T08:32:38.771Z,12.80
2023-06-19T08:35:07.992Z,12.57
2023-06-19T08:37:37.940Z,12.20
2023-06-19T08:40:10.632Z,12.20
2023-06-19T08:42:40.333Z,13.57
2023-06-19T08:45:11.610Z,14.07
2023-06-19T08:47:40.437Z,15.83
2023-06-19T08:50:10.334Z,13.93
2023-06-19T08:52:40.149Z,14.03
2023-06-19T08:55:09.826Z,13.53
2023-06-19T08:57:39.524Z,14.07
2023-06-19T09:00:11.996Z,13.73
2023-06-19T09:02:43.261Z,17.40
2023-06-19T09:05:15.518Z,15.53
2023-06-19T09:07:45.659Z,13.40
2023-06-19T09:10:17.558Z,14.63
2023-06-19T09:12:46.197Z,15.30
2023-06-19T09:15:15.041Z,13.40
2023-06-19T09:17:43.639Z,12.63
2023-06-19T09:20:13.050Z,12.73
2023-06-19T09:22:42.011Z,12.83
2023-06-19T09:25:12.081Z,11.80
2023-06-19T09:27:40.665Z,13.20
2023-06-19T09:30:09.908Z,14.73
2023-06-19T09:32:38.444Z,14.80
2023-06-19T09:35:07.639Z,11.80
2023-06-19T09:37:36.078Z,13.30
2023-06-19T09:40:11.355Z,12.37
2023-06-19T09:42:42.128Z,13.33
2023-06-19T09:45:13.685Z,12.43
2023-06-19T09:47:47.846Z,12.27
2023-06-19T09:50:19.059Z,12.63
2023-06-19T09:52:47.638Z,11.90
2023-06-19T09:55:17.143Z,11.40
2023-06-19T09:57:46.926Z,11.47
2023-06-19T10:00:18.029Z,11.90
2023-06-19T10:02:47.844Z,12.70
2023-06-19T10:05:16.582Z,13.10
2023-06-19T10:07:46.071Z,11.73
2023-06-19T10:10:25.465Z,12.63
2023-06-19T10:12:57.540Z,13.47
2023-06-19T10:15:27.026Z,12.53
2023-06-19T10:17:57.945Z,12.83
2023-06-19T10:20:33.088Z,14.17
2023-06-19T10:23:05.319Z,13.20
2023-06-19T10:25:35.508Z,13.27
2023-06-19T10:28:07.617Z,14.27
2023-06-19T10:30:36.483Z,12.63
2023-06-19T10:33:05.415Z,14.03
2023-06-19T10:35:41.143Z,13.20
2023-06-19T10:38:09.962Z,40.23
2023-06-19T10:40:39.112Z,14.87
2023-06-19T10:43:08.851Z,29.73
2023-06-19T10:45:37.342Z,14.63
2023-06-19T10:48:06.807Z,12.50
2023-06-19T10:50:39.650Z,12.23
2023-06-19T10:53:08.440Z,13.00
2023-06-19T10:55:36.872Z,13.30
2023-06-19T10:58:05.315Z,12.77
2023-06-19T11:00:35.670Z,13.23
2023-06-19T11:03:04.297Z,11.57
2023-06-19T11:05:32.774Z,11.97
2023-06-19T11:08:01.502Z,13.40
2023-06-19T11:10:31.110Z,12.50
2023-06-19T11:13:00.659Z,10.37
2023-06-19T11:15:34.248Z,10.00
2023-06-19T11:18:04.072Z,10.70
2023-06-19T11:20:32.556Z,10.27
2023-06-19T11:23:02.254Z,10.57
2023-06-19T11:25:38.057Z,11.43
2023-06-19T11:28:06.855Z,13.17
2023-06-19T11:30:36.842Z,11.93
2023-06-19T11:33:05.490Z,11.33
2023-06-19T11:35:37.617Z,10.63
2023-06-19T11:38:06.716Z,11.50
2023-06-19T11:40:42.225Z,11.50
2023-06-19T11:43:11.112Z,10.47
2023-06-19T11:45:50.281Z,10.47
2023-06-19T11:48:25.336Z,10.03
2023-06-19T11:50:54.273Z,10.10
2023-06-19T11:53:23.189Z,9.70
2023-06-19T11:55:51.612Z,10.50
2023-06-19T11:58:21.472Z,10.60
2023-06-19T12:00:51.280Z,12.83
2023-06-19T12:03:19.952Z,11.77
2023-06-19T12:05:48.418Z,12.60
2023-06-19T12:08:16.995Z,10.73
2023-06-19T12:10:45.723Z,11.53
2023-06-19T12:13:14.094Z,10.67
2023-06-19T12:15:42.454Z,11.53
2023-06-19T12:18:13.634Z,11.77
2023-06-19T12:20:42.161Z,12.37
2023-06-19T12:23:10.757Z,11.70
2023-06-19T12:25:39.199Z,12.87
2023-06-19T12:28:09.344Z,12.17
2023-06-19T12:30:38.581Z,11.00
2023-06-19T12:33:07.470Z,13.70
2023-06-19T12:35:37.327Z,10.40
2023-06-19T12:38:07.477Z,10.43
2023-06-19T12:40:36.163Z,11.40
2023-06-19T12:43:04.743Z,10.13
2023-06-19T12:45:33.252Z,10.17
2023-06-19T12:48:01.745Z,10.40
2023-06-19T12:50:30.220Z,10.40
2023-06-19T12:53:00.113Z,10.80
2023-06-19T12:55:28.508Z,11.77
2023-06-19T12:57:56.928Z,10.57
2023-06-19T13:00:25.544Z,10.10
2023-06-19T13:02:54.201Z,10.67
2023-06-19T13:05:22.670Z,10.70
2023-06-19T13:07:51.104Z,11.17
2023-06-19T13:10:21.011Z,9.87
2023-06-19T13:12:49.465Z,10.50
2023-06-19T13:15:18.119Z,11.03
2023-06-19T13:17:46.685Z,10.20
2023-06-19T13:20:15.403Z,10.90
2023-06-19T13:22:43.960Z,10.67
2023-06-19T13:25:12.414Z,10.67
2023-06-19T13:27:42.184Z,11.33
2023-06-19T13:30:12.111Z,10.63
2023-06-19T13:32:40.544Z,10.67
2023-06-19T13:35:10.435Z,10.70
2023-06-19T13:37:40.073Z,11.87
2023-06-19T13:40:10.175Z,11.00
2023-06-19T13:42:39.892Z,14.03
2023-06-19T13:45:11.027Z,10.17
2023-06-19T13:47:39.491Z,11.90
2023-06-19T13:50:10.268Z,12.07
2023-06-19T13:52:38.654Z,11.10
2023-06-19T13:55:08.232Z,11.77
2023-06-19T13:57:38.295Z,10.70
2023-06-19T14:00:12.305Z,11.83
2023-06-19T14:02:41.890Z,11.47
2023-06-19T14:05:11.214Z,12.23
2023-06-19T14:07:39.814Z,12.73
2023-06-19T14:10:09.658Z,12.20
2023-06-19T14:12:38.158Z,11.17
2023-06-19T14:15:10.750Z,11.57
2023-06-19T14:17:39.423Z,11.57
2023-06-19T14:20:10.136Z,11.63
2023-06-19T14:22:38.549Z,10.67
2023-06-19T14:25:08.000Z,11.53
2023-06-19T14:27:36.371Z,11.70
2023-06-19T14:30:05.456Z,11.13
2023-06-19T14:32:35.392Z,12.83
2023-06-19T14:35:03.883Z,15.50
2023-06-19T14:37:32.334Z,12.53
2023-06-19T14:40:00.786Z,11.27
2023-06-19T14:42:29.304Z,20.40
2023-06-19T14:44:57.705Z,12.17
2023-06-19T14:47:26.422Z,12.63
2023-06-19T14:49:56.370Z,11.60
2023-06-19T14:52:24.827Z,13.73
2023-06-19T14:54:53.137Z,12.57
2023-06-19T14:57:21.574Z,13.17
2023-06-19T14:59:49.910Z,13.23
2023-06-19T15:02:18.360Z,12.13
2023-06-19T15:05:01.124Z,11.30
2023-06-19T15:07:35.179Z,12.17
2023-06-19T15:10:04.910Z,11.73
2023-06-19T15:12:35.630Z,11.77
2023-06-19T15:15:04.173Z,12.10
2023-06-19T15:17:32.576Z,11.97
2023-06-19T15:20:00.992Z,11.10
2023-06-19T15:22:29.713Z,12.17
2023-06-19T15:24:59.458Z,11.83
2023-06-19T15:27:27.914Z,10.73
2023-06-19T15:29:56.312Z,11.97
2023-06-19T15:32:25.258Z,10.53
2023-06-19T15:34:53.718Z,10.60
2023-06-19T15:37:22.293Z,11.37
2023-06-19T15:39:52.717Z,11.73
2023-06-19T15:42:22.658Z,10.63
2023-06-19T15:44:51.095Z,10.13
2023-06-19T15:47:20.084Z,10.60
2023-06-19T15:49:48.423Z,10.33
2023-06-19T15:52:16.929Z,10.40
2023-06-19T15:54:45.357Z,9.43
2023-06-19T15:57:14.898Z,8.73
2023-06-19T15:59:47.861Z,9.00
2023-06-19T16:02:16.284Z,8.10
2023-06-19T16:04:44.766Z,9.00
2023-06-19T16:07:13.252Z,9.40
2023-06-19T16:09:54.393Z,8.87
2023-06-19T16:12:24.231Z,9.47
2023-06-19T16:14:54.106Z,9.30
2023-06-19T16:17:22.650Z,8.70
2023-06-19T16:19:51.186Z,9.30
2023-06-19T16:22:19.620Z,8.67
2023-06-19T16:24:48.089Z,10.07
2023-06-19T16:27:16.556Z,9.37
2023-06-19T16:29:44.962Z,8.90
2023-06-19T16:32:14.949Z,9.07
2023-06-19T16:34:43.580Z,9.53
2023-06-19T16:37:11.909Z,10.77
2023-06-19T16:39:40.292Z,10.63
2023-06-19T16:42:09.109Z,10.10
2023-06-19T16:44:37.520Z,11.27
2023-06-19T16:47:06.875Z,12.20
2023-06-19T16:49:36.808Z,10.83
2023-06-19T16:52:05.552Z,10.93
2023-06-19T16:54:33.926Z,10.83
2023-06-19T16:57:02.360Z,11.87
2023-06-19T16:59:30.781Z,11.73
2023-06-19T17:01:59.184Z,12.00
2023-06-19T17:04:27.679Z,11.23
2023-06-19T17:06:57.518Z,12.03
2023-06-19T17:09:26.012Z,11.97
2023-06-19T17:11:54.372Z,12.60
2023-06-19T17:14:23.816Z,11.67
2023-06-19T17:16:52.994Z,12.10
2023-06-19T17:19:21.353Z,11.40
2023-06-19T17:21:49.856Z,12.30
2023-06-19T17:24:19.688Z,13.00
2023-06-19T17:26:48.101Z,11.13
2023-06-19T17:29:16.601Z,11.47
2023-06-19T17:31:45.113Z,12.63
2023-06-19T17:34:13.659Z,12.07
2023-06-19T17:36:42.062Z,13.27
2023-06-19T17:39:10.643Z,12.03
2023-06-19T17:41:40.483Z,13.40
2023-06-19T17:44:09.235Z,12.60
2023-06-19T17:46:39.404Z,13.70
2023-06-19T17:49:08.093Z,13.17
2023-06-19T17:51:36.519Z,12.23
2023-06-19T17:54:05.856Z,13.37
2023-06-19T17:56:34.572Z,12.10
2023-06-19T17:59:04.520Z,13.27
2023-06-19T18:01:32.979Z,13.20
2023-06-19T18:04:01.458Z,14.93
2023-06-19T18:06:29.891Z,12.37
2023-06-19T18:08:58.300Z,13.23
2023-06-19T18:11:26.794Z,13.07
2023-06-19T18:13:55.222Z,13.60
2023-06-19T18:16:25.402Z,13.20
2023-06-19T18:18:53.873Z,13.30
2023-06-19T18:21:22.212Z,13.47
2023-06-19T18:23:51.036Z,19.33
2023-06-19T18:26:19.522Z,13.63
2023-06-19T18:28:47.962Z,14.00
2023-06-19T18:31:16.351Z,15.53
2023-06-19T18:33:46.156Z,13.93
2023-06-19T18:36:14.686Z,14.83
2023-06-19T18:38:43.076Z,14.57
2023-06-19T18:41:11.496Z,17.77
2023-06-19T18:43:40.153Z,16.00
2023-06-19T18:46:08.666Z,14.53
2023-06-19T18:48:37.131Z,15.37
2023-06-19T18:51:06.920Z,15.93
2023-06-19T18:53:35.356Z,14.57
2023-06-19T18:56:03.756Z,14.47
2023-06-19T18:58:32.198Z,15.13
2023-06-19T19:01:01.221Z,14.77
2023-06-19T19:03:31.760Z,15.13
2023-06-19T19:06:00.353Z,15.67
2023-06-19T19:08:30.171Z,13.67
2023-06-19T19:10:58.621Z,14.30
2023-06-19T19:13:27.122Z,14.67
2023-06-19T19:15:55.541Z,14.40
2023-06-19T19:18:23.958Z,15.37
2023-06-19T19:20:52.478Z,16.07
2023-06-19T19:23:20.917Z,16.10
2023-06-19T19:25:50.753Z,19.90
2023-06-19T19:28:19.211Z,17.50
2023-06-19T19:30:47.644Z,15.90
2023-06-19T19:33:17.499Z,15.37
2023-06-19T19:35:46.118Z,16.70
2023-06-19T19:38:17.661Z,16.73
2023-06-19T19:40:46.786Z,14.33
2023-06-19T19:43:17.727Z,15.90
2023-06-19T19:45:46.201Z,14.87
2023-06-19T19:48:14.646Z,15.77
2023-06-19T19:50:43.087Z,14.97
2023-06-19T19:53:11.508Z,15.53
2023-06-19T19:55:39.926Z,16.03
2023-06-19T19:58:08.342Z,15.87
2023-06-19T20:00:38.186Z,17.07
2023-06-19T20:03:06.720Z,15.43
2023-06-19T20:05:35.243Z,18.90
2023-06-19T20:08:03.670Z,15.63
2023-06-19T20:10:32.072Z,15.33
2023-06-19T20:13:00.494Z,16.10
2023-06-19T20:15:29.000Z,16.00
2023-06-19T20:17:58.825Z,17.50
2023-06-19T20:20:27.679Z,15.87
2023-06-19T20:22:57.606Z,17.13
2023-06-19T20:25:26.008Z,16.87
2023-06-19T20:28:07.442Z,16.03
2023-06-19T20:30:37.198Z,16.03
2023-06-19T20:33:07.101Z,15.90
2023-06-19T20:35:35.590Z,15.77
2023-06-19T20:38:04.059Z,16.67
2023-06-19T20:40:32.504Z,15.77
2023-06-19T20:43:00.967Z,15.60
2023-06-19T20:45:29.428Z,15.33
2023-06-19T20:47:57.899Z,14.50
2023-06-19T20:50:28.189Z,15.00
2023-06-19T20:52:56.858Z,17.77
2023-06-19T20:55:25.254Z,15.67
2023-06-19T20:57:54.596Z,15.33
2023-06-19T21:00:23.759Z,16.60
2023-06-19T21:02:52.776Z,15.13
2023-06-19T21:05:21.310Z,14.60
2023-06-19T21:07:52.738Z,16.30
2023-06-19T21:10:21.341Z,16.10
2023-06-19T21:12:49.910Z,17.23
2023-06-19T21:15:18.567Z,16.90
2023-06-19T21:17:47.241Z,18.00
2023-06-19T21:20:15.842Z,16.23
2023-06-19T21:22:44.294Z,17.00
2023-06-19T21:25:14.166Z,17.33
2023-06-19T21:27:44.157Z,17.67
2023-06-19T21:30:14.448Z,15.70
2023-06-19T21:32:43.826Z,17.17
2023-06-19T21:35:12.422Z,17.77
2023-06-19T21:37:40.860Z,18.47
2023-06-19T21:40:10.148Z,19.17
2023-06-19T21:42:40.000Z,21.53
2023-06-19T21:45:09.977Z,16.17
2023-06-19T21:47:39.362Z,17.63
2023-06-19T21:50:08.824Z,19.57
2023-06-19T21:52:39.401Z,19.17
2023-06-19T21:55:09.813Z,17.27
2023-06-19T21:57:54.215Z,19.83
2023-06-19T22:00:29.473Z,18.70
2023-06-19T22:02:58.707Z,18.53
2023-06-19T22:05:27.474Z,19.00
2023-06-19T22:07:56.046Z,19.30
2023-06-19T22:10:24.835Z,19.47
2023-06-19T22:12:54.981Z,19.47
2023-06-19T22:15:23.341Z,19.07
2023-06-19T22:17:51.748Z,21.83
2023-06-19T22:20:20.304Z,20.60
2023-06-19T22:22:48.705Z,21.17
2023-06-19T22:25:17.384Z,24.03
2023-06-19T22:27:47.256Z,24.03
2023-06-19T22:30:17.573Z,21.70
2023-06-19T22:32:45.990Z,25.03
2023-06-19T22:35:14.441Z,25.73
2023-06-19T22:37:43.147Z,24.03
2023-06-19T22:40:12.960Z,21.30
2023-06-19T22:42:42.594Z,25.30
2023-06-19T22:45:12.196Z,20.23
2023-06-19T22:47:42.064Z,24.50
2023-06-19T22:50:12.047Z,24.50
2023-06-19T22:52:40.534Z,24.80
2023-06-19T22:55:09.743Z,22.20
2023-06-19T22:57:38.566Z,23.73
2023-06-19T23:00:11.784Z,25.13
2023-06-19T23:02:41.867Z,24.60
2023-06-19T23:05:11.089Z,22.63
2023-06-19T23:07:40.340Z,25.23
2023-06-19T23:10:09.972Z,25.53
2023-06-19T23:12:38.537Z,25.23
2023-06-19T23:15:08.722Z,31.43
2023-06-19T23:17:37.586Z,27.40
2023-06-19T23:20:13.239Z,25.40
2023-06-19T23:22:41.613Z,23.93
2023-06-19T23:25:12.021Z,23.97
2023-06-19T23:27:40.529Z,23.80
2023-06-19T23:30:10.291Z,22.40
2023-06-19T23:32:38.825Z,22.40
2023-06-19T23:35:09.717Z,29.03
2023-06-19T23:37:38.170Z,20.57
2023-06-19T23:40:09.295Z,24.07
2023-06-19T23:42:37.980Z,22.83
2023-06-19T23:45:07.452Z,23.20
2023-06-19T23:47:35.977Z,23.73
2023-06-19T23:50:04.802Z,26.53
2023-06-19T23:52:43.447Z,22.90
2023-06-19T23:55:13.017Z,24.97
2023-06-19T23:57:41.487Z,22.50
